sensor_id;sensor_type;location;lat;lon;timestamp;pressure;altitude;pressure_sealevel;temperature;humidity
61571;BME280;47463;49.884;10.010;2022-09-14T00:00:01;101264;;;16.2;85
61571;BME280;47463;49.884;10.010;2022-09-14T00:05:01;101263;;;16.2;85
61571;BME280;47463;49.884;10.010;2022-09-14T00:10:01;101279;;;16.2;85
61571;BME280;47463;49.884;10.010;2022-09-14T00:15:01;101266;;;16.3;85
61571;BME280;47463;49.884;10.010;2022-09-14T00:20:01;101258;;;16.2;85
61571;BME280;47463;49.884;10.010;2022-09-14T00:25:01;101248;;;16.2;85
61571;BME280;47463;49.884;10.010;2022-09-14T00:30:01;101249;;;16.1;85
61571;BME280;47463;49.884;10.010;2022-09-14T00:35:01;101226;;;16.1;85
61571;BME280;47463;49.884;10.010;2022-09-14T00:40:01;101218;;;16.1;85
61571;BME280;47463;49.884;10.010;2022-09-14T00:45:03;101213;;;16.1;85
61571;BME280;47463;49.884;10.010;2022-09-14T00:50:01;101203;;;16.3;85
61571;BME280;47463;49.884;10.010;2022-09-14T00:55:02;101195;;;16.7;84
61571;BME280;47463;49.884;10.010;2022-09-14T01:00:01;101193;;;16.7;83
61571;BME280;47463;49.884;10.010;2022-09-14T01:05:01;101188;;;16.5;84
61571;BME280;47463;49.884;10.010;2022-09-14T01:10:02;101211;;;16.4;84
61571;BME280;47463;49.884;10.010;2022-09-14T01:15:02;101223;;;16.3;84
61571;BME280;47463;49.884;10.010;2022-09-14T01:20:06;101225;;;16.4;85
61571;BME280;47463;49.884;10.010;2022-09-14T01:25:05;101219;;;16.3;84
61571;BME280;47463;49.884;10.010;2022-09-14T01:30:02;101212;;;16.3;85
61571;BME280;47463;49.884;10.010;2022-09-14T01:35:02;101191;;;16.4;85
61571;BME280;47463;49.884;10.010;2022-09-14T01:40:02;101186;;;16.4;85
61571;BME280;47463;49.884;10.010;2022-09-14T01:45:02;101185;;;16.3;85
61571;BME280;47463;49.884;10.010;2022-09-14T01:50:02;101192;;;16.3;85
61571;BME280;47463;49.884;10.010;2022-09-14T01:55:02;101187;;;16.2;85
61571;BME280;47463;49.884;10.010;2022-09-14T02:00:02;101189;;;16.1;86
61571;BME280;47463;49.884;10.010;2022-09-14T02:05:02;101192;;;16.1;86
61571;BME280;47463;49.884;10.010;2022-09-14T02:10:01;101189;;;16.1;86
61571;BME280;47463;49.884;10.010;2022-09-14T02:15:01;101186;;;16;86
61571;BME280;47463;49.884;10.010;2022-09-14T02:20:03;101178;;;16;87
61571;BME280;47463;49.884;10.010;2022-09-14T02:25:01;101171;;;16;87
61571;BME280;47463;49.884;10.010;2022-09-14T02:30:01;101173;;;16;87
61571;BME280;47463;49.884;10.010;2022-09-14T02:35:04;101169;;;16;87
61571;BME280;47463;49.884;10.010;2022-09-14T02:40:04;101160;;;16;87
61571;BME280;47463;49.884;10.010;2022-09-14T02:45:03;101155;;;15.9;87
61571;BME280;47463;49.884;10.010;2022-09-14T02:50:02;101158;;;15.9;87
61571;BME280;47463;49.884;10.010;2022-09-14T02:55:02;101162;;;16;87
61571;BME280;47463;49.884;10.010;2022-09-14T03:00:01;101174;;;16;87
61571;BME280;47463;49.884;10.010;2022-09-14T03:05:01;101195;;;15.9;88
61571;BME280;47463;49.884;10.010;2022-09-14T03:10:01;101194;;;15.9;88
61571;BME280;47463;49.884;10.010;2022-09-14T03:15:01;101195;;;15.9;88
61571;BME280;47463;49.884;10.010;2022-09-14T03:20:01;101195;;;15.9;88
61571;BME280;47463;49.884;10.010;2022-09-14T03:25:01;101186;;;15.9;88
61571;BME280;47463;49.884;10.010;2022-09-14T03:30:01;101177;;;16;87
61571;BME280;47463;49.884;10.010;2022-09-14T03:35:01;101142;;;16;87
61571;BME280;47463;49.884;10.010;2022-09-14T03:40:01;101122;;;16;87
61571;BME280;47463;49.884;10.010;2022-09-14T03:45:01;101096;;;15.9;87
61571;BME280;47463;49.884;10.010;2022-09-14T03:50:01;101094;;;15.9;87
61571;BME280;47463;49.884;10.010;2022-09-14T03:55:01;101092;;;15.9;87
61571;BME280;47463;49.884;10.010;2022-09-14T04:00:01;101076;;;15.9;88
61571;BME280;47463;49.884;10.010;2022-09-14T04:05:01;101081;;;15.9;88
61571;BME280;47463;49.884;10.010;2022-09-14T04:10:01;101085;;;15.9;88
61571;BME280;47463;49.884;10.010;2022-09-14T04:15:01;101085;;;15.8;88
61571;BME280;47463;49.884;10.010;2022-09-14T04:20:01;101084;;;15.8;88
61571;BME280;47463;49.884;10.010;2022-09-14T04:25:01;101083;;;15.8;88
61571;BME280;47463;49.884;10.010;2022-09-14T04:30:01;101073;;;15.8;88
61571;BME280;47463;49.884;10.010;2022-09-14T04:35:01;101063;;;15.8;88
61571;BME280;47463;49.884;10.010;2022-09-14T04:40:01;101048;;;15.8;88
61571;BME280;47463;49.884;10.010;2022-09-14T04:45:01;101031;;;15.8;88
61571;BME280;47463;49.884;10.010;2022-09-14T04:50:01;101025;;;15.8;88
61571;BME280;47463;49.884;10.010;2022-09-14T04:55:01;101027;;;15.8;88
61571;BME280;47463;49.884;10.010;2022-09-14T05:00:01;101032;;;15.8;88
61571;BME280;47463;49.884;10.010;2022-09-14T05:05:01;101035;;;15.8;88
61571;BME280;47463;49.884;10.010;2022-09-14T05:10:01;101039;;;15.7;88
61571;BME280;47463;49.884;10.010;2022-09-14T05:15:01;101045;;;15.7;88
61571;BME280;47463;49.884;10.010;2022-09-14T05:20:01;101044;;;15.7;88
61571;BME280;47463;49.884;10.010;2022-09-14T05:25:01;101040;;;15.8;88
61571;BME280;47463;49.884;10.010;2022-09-14T05:30:01;101038;;;15.8;88
61571;BME280;47463;49.884;10.010;2022-09-14T05:35:01;101041;;;15.8;88
61571;BME280;47463;49.884;10.010;2022-09-14T05:40:01;101034;;;15.8;88
61571;BME280;47463;49.884;10.010;2022-09-14T05:45:01;101037;;;15.8;88
61571;BME280;47463;49.884;10.010;2022-09-14T05:50:01;101028;;;15.8;88
61571;BME280;47463;49.884;10.010;2022-09-14T05:55:01;101039;;;15.8;88
61571;BME280;47463;49.884;10.010;2022-09-14T06:00:01;101034;;;15.8;88
61571;BME280;47463;49.884;10.010;2022-09-14T06:05:01;101041;;;15.8;88
61571;BME280;47463;49.884;10.010;2022-09-14T06:10:01;101043;;;15.9;88
61571;BME280;47463;49.884;10.010;2022-09-14T06:15:01;101036;;;15.9;88
61571;BME280;47463;49.884;10.010;2022-09-14T06:20:01;101029;;;15.9;88
61571;BME280;47463;49.884;10.010;2022-09-14T06:25:01;101017;;;15.9;88
61571;BME280;47463;49.884;10.010;2022-09-14T06:30:01;101008;;;15.9;88
61571;BME280;47463;49.884;10.010;2022-09-14T06:35:01;101005;;;16;88
61571;BME280;47463;49.884;10.010;2022-09-14T06:40:01;101008;;;16;88
61571;BME280;47463;49.884;10.010;2022-09-14T06:45:01;101010;;;16;88
61571;BME280;47463;49.884;10.010;2022-09-14T06:50:01;101006;;;16;88
61571;BME280;47463;49.884;10.010;2022-09-14T06:55:01;101008;;;16;88
61571;BME280;47463;49.884;10.010;2022-09-14T07:00:01;101010;;;16;88
61571;BME280;47463;49.884;10.010;2022-09-14T07:05:01;101015;;;16;88
61571;BME280;47463;49.884;10.010;2022-09-14T07:10:01;101011;;;16;88
61571;BME280;47463;49.884;10.010;2022-09-14T07:15:01;101012;;;16;88
61571;BME280;47463;49.884;10.010;2022-09-14T07:20:01;101006;;;16.1;88
61571;BME280;47463;49.884;10.010;2022-09-14T07:25:01;101007;;;16.1;88
61571;BME280;47463;49.884;10.010;2022-09-14T07:30:01;101009;;;16.1;88
61571;BME280;47463;49.884;10.010;2022-09-14T07:35:01;101024;;;16.2;88
61571;BME280;47463;49.884;10.010;2022-09-14T07:40:01;101026;;;16.1;88
61571;BME280;47463;49.884;10.010;2022-09-14T07:45:01;101021;;;16.1;88
61571;BME280;47463;49.884;10.010;2022-09-14T07:50:01;101017;;;16.1;88
61571;BME280;47463;49.884;10.010;2022-09-14T07:55:01;101013;;;16.2;88
61571;BME280;47463;49.884;10.010;2022-09-14T08:00:01;101019;;;16.2;88
61571;BME280;47463;49.884;10.010;2022-09-14T08:05:01;101020;;;16.2;88
61571;BME280;47463;49.884;10.010;2022-09-14T08:10:01;101001;;;16.2;88
61571;BME280;47463;49.884;10.010;2022-09-14T08:15:01;101009;;;16.3;88
61571;BME280;47463;49.884;10.010;2022-09-14T08:20:01;101017;;;16.4;88
61571;BME280;47463;49.884;10.010;2022-09-14T08:25:01;101017;;;16.4;88
61571;BME280;47463;49.884;10.010;2022-09-14T08:30:01;101012;;;16.5;88
61571;BME280;47463;49.884;10.010;2022-09-14T08:35:01;101005;;;16.6;88
61571;BME280;47463;49.884;10.010;2022-09-14T08:40:01;100989;;;16.6;88
61571;BME280;47463;49.884;10.010;2022-09-14T08:45:01;100989;;;16.6;88
61571;BME280;47463;49.884;10.010;2022-09-14T08:50:02;101003;;;16.7;88
61571;BME280;47463;49.884;10.010;2022-09-14T08:55:05;101028;;;16.9;87
61571;BME280;47463;49.884;10.010;2022-09-14T09:00:03;101037;;;17.1;87
61571;BME280;47463;49.884;10.010;2022-09-14T09:05:02;101035;;;17;87
61571;BME280;47463;49.884;10.010;2022-09-14T09:10:01;101031;;;17.2;86
61571;BME280;47463;49.884;10.010;2022-09-14T09:15:02;101024;;;17.2;86
61571;BME280;47463;49.884;10.010;2022-09-14T09:20:03;101028;;;17.3;86
61571;BME280;47463;49.884;10.010;2022-09-14T09:25:01;101034;;;17.3;85
61571;BME280;47463;49.884;10.010;2022-09-14T09:30:01;101057;;;17.3;85
61571;BME280;47463;49.884;10.010;2022-09-14T09:35:01;101070;;;17.2;85
61571;BME280;47463;49.884;10.010;2022-09-14T09:40:01;101071;;;17.1;85
61571;BME280;47463;49.884;10.010;2022-09-14T09:45:01;101058;;;17.2;85
61571;BME280;47463;49.884;10.010;2022-09-14T09:50:01;101066;;;17.3;86
61571;BME280;47463;49.884;10.010;2022-09-14T09:55:01;101060;;;17.4;85
61571;BME280;47463;49.884;10.010;2022-09-14T10:00:10;101062;;;17.5;85
61571;BME280;47463;49.884;10.010;2022-09-14T10:05:02;101072;;;17.8;85
61571;BME280;47463;49.884;10.010;2022-09-14T10:10:01;101077;;;17.9;84
61571;BME280;47463;49.884;10.010;2022-09-14T10:15:06;101066;;;18;84
61571;BME280;47463;49.884;10.010;2022-09-14T10:20:01;101044;;;18;84
61571;BME280;47463;49.884;10.010;2022-09-14T10:25:01;101042;;;18.1;84
61571;BME280;47463;49.884;10.010;2022-09-14T10:30:01;101035;;;18;84
61571;BME280;47463;49.884;10.010;2022-09-14T10:35:01;101025;;;18.2;84
61571;BME280;47463;49.884;10.010;2022-09-14T10:40:06;101011;;;18.4;83
61571;BME280;47463;49.884;10.010;2022-09-14T10:45:05;101002;;;18.7;83
61571;BME280;47463;49.884;10.010;2022-09-14T10:50:03;100996;;;18.8;83
61571;BME280;47463;49.884;10.010;2022-09-14T10:55:05;100984;;;19.1;82
61571;BME280;47463;49.884;10.010;2022-09-14T11:00:02;100956;;;19.2;81
61571;BME280;47463;49.884;10.010;2022-09-14T11:05:04;100948;;;19.4;81
61571;BME280;47463;49.884;10.010;2022-09-14T11:10:03;100913;;;19.8;81
61571;BME280;47463;49.884;10.010;2022-09-14T11:15:02;100910;;;19.7;79
61571;BME280;47463;49.884;10.010;2022-09-14T11:20:03;100905;;;19.9;80
61571;BME280;47463;49.884;10.010;2022-09-14T11:25:02;100908;;;19.9;80
61571;BME280;47463;49.884;10.010;2022-09-14T11:30:02;100917;;;20.1;80
61571;BME280;47463;49.884;10.010;2022-09-14T11:35:02;100906;;;19.7;79
61571;BME280;47463;49.884;10.010;2022-09-14T11:40:04;100899;;;19.6;79
61571;BME280;47463;49.884;10.010;2022-09-14T11:45:02;100880;;;19.7;80
61571;BME280;47463;49.884;10.010;2022-09-14T11:50:02;100868;;;19.8;79
61571;BME280;47463;49.884;10.010;2022-09-14T11:55:01;100855;;;19.8;79
61571;BME280;47463;49.884;10.010;2022-09-14T12:00:01;100860;;;20;79
61571;BME280;47463;49.884;10.010;2022-09-14T12:05:33;100864;;;20;79
61571;BME280;47463;49.884;10.010;2022-09-14T12:10:15;100858;;;20;79
61571;BME280;47463;49.884;10.010;2022-09-14T12:15:02;100852;;;20;79
61571;BME280;47463;49.884;10.010;2022-09-14T12:21:06;100849;;;20.1;79
61571;BME280;47463;49.884;10.010;2022-09-14T12:25:02;100854;;;20.1;79
61571;BME280;47463;49.884;10.010;2022-09-14T12:30:01;100859;;;20.1;79
61571;BME280;47463;49.884;10.010;2022-09-14T12:35:34;100856;;;20.3;79
61571;BME280;47463;49.884;10.010;2022-09-14T12:40:33;100847;;;20.2;79
61571;BME280;47463;49.884;10.010;2022-09-14T12:45:45;100854;;;20;79
61571;BME280;47463;49.884;10.010;2022-09-14T12:50:03;100851;;;20;80
61571;BME280;47463;49.884;10.010;2022-09-14T12:55:04;100844;;;20;80
61571;BME280;47463;49.884;10.010;2022-09-14T13:00:04;100844;;;20;79
61571;BME280;47463;49.884;10.010;2022-09-14T13:05:01;100840;;;20;80
61571;BME280;47463;49.884;10.010;2022-09-14T13:10:01;100842;;;20;80
61571;BME280;47463;49.884;10.010;2022-09-14T13:15:02;100841;;;20;80
61571;BME280;47463;49.884;10.010;2022-09-14T13:20:02;100838;;;20.2;80
61571;BME280;47463;49.884;10.010;2022-09-14T13:25:01;100817;;;20.4;80
61571;BME280;47463;49.884;10.010;2022-09-14T13:30:03;100816;;;20.5;79
61571;BME280;47463;49.884;10.010;2022-09-14T13:35:02;100795;;;20.4;79
61571;BME280;47463;49.884;10.010;2022-09-14T13:40:01;100799;;;20.4;79
61571;BME280;47463;49.884;10.010;2022-09-14T13:45:01;100799;;;20.2;80
61571;BME280;47463;49.884;10.010;2022-09-14T13:50:01;100787;;;20;81
61571;BME280;47463;49.884;10.010;2022-09-14T13:55:18;100777;;;19.9;81
61571;BME280;47463;49.884;10.010;2022-09-14T14:00:03;100772;;;19.9;81
61571;BME280;47463;49.884;10.010;2022-09-14T14:05:01;100770;;;19.8;82
61571;BME280;47463;49.884;10.010;2022-09-14T14:10:01;100764;;;19.8;82
61571;BME280;47463;49.884;10.010;2022-09-14T14:15:01;100755;;;19.7;82
61571;BME280;47463;49.884;10.010;2022-09-14T14:20:33;100744;;;19.7;82
61571;BME280;47463;49.884;10.010;2022-09-14T14:25:16;100747;;;19.7;82
61571;BME280;47463;49.884;10.010;2022-09-14T14:30:03;100754;;;19.7;82
61571;BME280;47463;49.884;10.010;2022-09-14T14:35:02;100750;;;19.5;83
61571;BME280;47463;49.884;10.010;2022-09-14T14:40:01;100731;;;19.5;83
61571;BME280;47463;49.884;10.010;2022-09-14T14:45:01;100716;;;19.4;83
61571;BME280;47463;49.884;10.010;2022-09-14T14:50:01;100722;;;19.4;83
61571;BME280;47463;49.884;10.010;2022-09-14T14:55:01;100752;;;19.3;84
61571;BME280;47463;49.884;10.010;2022-09-14T15:00:01;100786;;;19.1;85
61571;BME280;47463;49.884;10.010;2022-09-14T15:05:01;100785;;;18.9;85
61571;BME280;47463;49.884;10.010;2022-09-14T15:10:01;100745;;;18.6;84
61571;BME280;47463;49.884;10.010;2022-09-14T15:15:01;100729;;;18.5;85
61571;BME280;47463;49.884;10.010;2022-09-14T15:20:01;100710;;;18.5;85
61571;BME280;47463;49.884;10.010;2022-09-14T15:25:01;100690;;;18.5;85
61571;BME280;47463;49.884;10.010;2022-09-14T15:30:01;100682;;;18.5;85
61571;BME280;47463;49.884;10.010;2022-09-14T15:35:01;100687;;;18.5;85
61571;BME280;47463;49.884;10.010;2022-09-14T15:40:01;100678;;;18.6;86
61571;BME280;47463;49.884;10.010;2022-09-14T15:45:01;100669;;;18.6;86
61571;BME280;47463;49.884;10.010;2022-09-14T15:50:01;100692;;;18.4;86
61571;BME280;47463;49.884;10.010;2022-09-14T15:55:01;100689;;;18.6;86
61571;BME280;47463;49.884;10.010;2022-09-14T16:00:01;100694;;;18.8;85
61571;BME280;47463;49.884;10.010;2022-09-14T16:05:01;100705;;;18.8;85
61571;BME280;47463;49.884;10.010;2022-09-14T16:10:01;100714;;;18.7;85
61571;BME280;47463;49.884;10.010;2022-09-14T16:15:01;100738;;;18.7;85
61571;BME280;47463;49.884;10.010;2022-09-14T16:20:01;100736;;;18.7;85
61571;BME280;47463;49.884;10.010;2022-09-14T16:25:01;100732;;;18.8;85
61571;BME280;47463;49.884;10.010;2022-09-14T16:30:01;100743;;;18.8;85
61571;BME280;47463;49.884;10.010;2022-09-14T16:35:01;100737;;;18.8;85
61571;BME280;47463;49.884;10.010;2022-09-14T16:40:01;100739;;;18.8;86
61571;BME280;47463;49.884;10.010;2022-09-14T16:45:01;100745;;;18.8;86
61571;BME280;47463;49.884;10.010;2022-09-14T16:50:01;100765;;;18.8;86
61571;BME280;47463;49.884;10.010;2022-09-14T16:55:01;100771;;;18.8;86
61571;BME280;47463;49.884;10.010;2022-09-14T17:00:01;100772;;;18.9;85
61571;BME280;47463;49.884;10.010;2022-09-14T17:05:01;100787;;;18.9;85
61571;BME280;47463;49.884;10.010;2022-09-14T17:10:01;100792;;;18.9;85
61571;BME280;47463;49.884;10.010;2022-09-14T17:15:01;100797;;;18.8;85
61571;BME280;47463;49.884;10.010;2022-09-14T17:20:01;100802;;;18.8;85
61571;BME280;47463;49.884;10.010;2022-09-14T17:25:01;100797;;;18.8;85
61571;BME280;47463;49.884;10.010;2022-09-14T17:30:01;100803;;;18.8;85
61571;BME280;47463;49.884;10.010;2022-09-14T17:35:01;100804;;;18.7;85
61571;BME280;47463;49.884;10.010;2022-09-14T17:40:01;100796;;;18.7;85
61571;BME280;47463;49.884;10.010;2022-09-14T17:45:01;100799;;;18.7;85
61571;BME280;47463;49.884;10.010;2022-09-14T17:50:01;100794;;;18.7;85
61571;BME280;47463;49.884;10.010;2022-09-14T17:55:01;100799;;;18.7;84
61571;BME280;47463;49.884;10.010;2022-09-14T18:00:01;100802;;;18.7;84
61571;BME280;47463;49.884;10.010;2022-09-14T18:05:01;100802;;;18.6;85
61571;BME280;47463;49.884;10.010;2022-09-14T18:10:01;100805;;;18.6;85
61571;BME280;47463;49.884;10.010;2022-09-14T18:15:01;100800;;;18.6;85
61571;BME280;47463;49.884;10.010;2022-09-14T18:20:01;100791;;;18.5;85
61571;BME280;47463;49.884;10.010;2022-09-14T18:25:01;100815;;;18.4;85
61571;BME280;47463;49.884;10.010;2022-09-14T18:30:01;100810;;;18.4;85
61571;BME280;47463;49.884;10.010;2022-09-14T18:35:01;100806;;;18.4;85
61571;BME280;47463;49.884;10.010;2022-09-14T18:40:01;100826;;;18.3;85
61571;BME280;47463;49.884;10.010;2022-09-14T18:45:01;100832;;;18.3;85
61571;BME280;47463;49.884;10.010;2022-09-14T18:50:01;100840;;;18.2;85
61571;BME280;47463;49.884;10.010;2022-09-14T18:55:01;100852;;;18.2;85
61571;BME280;47463;49.884;10.010;2022-09-14T19:00:02;100847;;;18.2;85
61571;BME280;47463;49.884;10.010;2022-09-14T19:05:01;100844;;;18.1;85
61571;BME280;47463;49.884;10.010;2022-09-14T19:10:01;100835;;;18.1;85
61571;BME280;47463;49.884;10.010;2022-09-14T19:15:01;100841;;;18.1;85
61571;BME280;47463;49.884;10.010;2022-09-14T19:20:01;100838;;;18;85
61571;BME280;47463;49.884;10.010;2022-09-14T19:25:01;100834;;;18;85
61571;BME280;47463;49.884;10.010;2022-09-14T19:30:01;100816;;;18;85
61571;BME280;47463;49.884;10.010;2022-09-14T19:35:01;100815;;;17.9;85
61571;BME280;47463;49.884;10.010;2022-09-14T19:40:01;100814;;;17.9;85
61571;BME280;47463;49.884;10.010;2022-09-14T19:45:01;100799;;;17.8;86
61571;BME280;47463;49.884;10.010;2022-09-14T19:50:01;100802;;;17.7;86
61571;BME280;47463;49.884;10.010;2022-09-14T19:55:01;100827;;;17.7;86
61571;BME280;47463;49.884;10.010;2022-09-14T20:00:01;100829;;;17.6;86
61571;BME280;47463;49.884;10.010;2022-09-14T20:05:01;100820;;;17.6;86
61571;BME280;47463;49.884;10.010;2022-09-14T20:10:01;100813;;;17.6;86
61571;BME280;47463;49.884;10.010;2022-09-14T20:15:01;100829;;;17.5;86
61571;BME280;47463;49.884;10.010;2022-09-14T20:20:01;100832;;;17.5;87
61571;BME280;47463;49.884;10.010;2022-09-14T20:25:01;100845;;;17.5;86
61571;BME280;47463;49.884;10.010;2022-09-14T20:30:01;100851;;;17.5;86
61571;BME280;47463;49.884;10.010;2022-09-14T20:35:01;100841;;;17.6;87
61571;BME280;47463;49.884;10.010;2022-09-14T20:40:01;100836;;;17.7;86
61571;BME280;47463;49.884;10.010;2022-09-14T20:50:01;100845;;;17.8;85
61571;BME280;47463;49.884;10.010;2022-09-14T20:55:01;100846;;;17.9;85
61571;BME280;47463;49.884;10.010;2022-09-14T21:00:01;100839;;;17.9;85
61571;BME280;47463;49.884;10.010;2022-09-14T21:05:01;100838;;;17.9;85
61571;BME280;47463;49.884;10.010;2022-09-14T21:10:01;100831;;;17.8;85
61571;BME280;47463;49.884;10.010;2022-09-14T21:15:01;100833;;;17.8;85
61571;BME280;47463;49.884;10.010;2022-09-14T21:20:01;100843;;;17.8;85
61571;BME280;47463;49.884;10.010;2022-09-14T21:25:01;100852;;;17.8;85
61571;BME280;47463;49.884;10.010;2022-09-14T21:30:01;100862;;;17.8;85
61571;BME280;47463;49.884;10.010;2022-09-14T21:35:01;100878;;;17.7;85
61571;BME280;47463;49.884;10.010;2022-09-14T21:40:01;100891;;;17.7;85
61571;BME280;47463;49.884;10.010;2022-09-14T21:45:01;100891;;;17.7;85
61571;BME280;47463;49.884;10.010;2022-09-14T21:50:01;100875;;;17.7;85
61571;BME280;47463;49.884;10.010;2022-09-14T21:55:01;100872;;;17.6;86
61571;BME280;47463;49.884;10.010;2022-09-14T22:00:01;100863;;;17.6;86
61571;BME280;47463;49.884;10.010;2022-09-14T22:05:01;100866;;;17.5;86
61571;BME280;47463;49.884;10.010;2022-09-14T22:10:01;100860;;;17.5;86
61571;BME280;47463;49.884;10.010;2022-09-14T22:15:01;100864;;;17.4;86
61571;BME280;47463;49.884;10.010;2022-09-14T22:20:01;100876;;;17.4;86
61571;BME280;47463;49.884;10.010;2022-09-14T22:25:01;100886;;;17.4;86
61571;BME280;47463;49.884;10.010;2022-09-14T22:30:01;100889;;;17.4;86
61571;BME280;47463;49.884;10.010;2022-09-14T22:35:01;100890;;;17.4;86
61571;BME280;47463;49.884;10.010;2022-09-14T22:40:01;100886;;;17.3;86
61571;BME280;47463;49.884;10.010;2022-09-14T22:45:01;100876;;;17.3;86
61571;BME280;47463;49.884;10.010;2022-09-14T22:50:01;100872;;;17.3;86
61571;BME280;47463;49.884;10.010;2022-09-14T22:55:01;100882;;;17.3;86
61571;BME280;47463;49.884;10.010;2022-09-14T23:00:01;100889;;;17.3;86
61571;BME280;47463;49.884;10.010;2022-09-14T23:05:01;100893;;;17.3;86
61571;BME280;47463;49.884;10.010;2022-09-14T23:10:01;100903;;;17.2;86
61571;BME280;47463;49.884;10.010;2022-09-14T23:15:01;100905;;;17.2;86
61571;BME280;47463;49.884;10.010;2022-09-14T23:20:01;100907;;;17.1;86
61571;BME280;47463;49.884;10.010;2022-09-14T23:25:01;100910;;;17.1;86
61571;BME280;47463;49.884;10.010;2022-09-14T23:30:01;100913;;;17;86
61571;BME280;47463;49.884;10.010;2022-09-14T23:35:01;100907;;;17;86
61571;BME280;47463;49.884;10.010;2022-09-14T23:40:01;100910;;;17;86
61571;BME280;47463;49.884;10.010;2022-09-14T23:45:01;100902;;;17;86
61571;BME280;47463;49.884;10.010;2022-09-14T23:50:01;100901;;;17;86
61571;BME280;47463;49.884;10.010;2022-09-14T23:55:01;100899;;;17;86
